createdAt,value
2019-05-06T00:00:24.521Z,4.65
2019-05-06T00:30:27.455Z,4.60
2019-05-06T01:00:30.057Z,4.03
2019-05-06T01:30:33.708Z,3.90
2019-05-06T02:00:39.437Z,3.73
2019-05-06T02:30:40.610Z,4.10
2019-05-06T03:00:43.295Z,4.03
2019-05-06T03:30:46.426Z,4.40
2019-05-06T04:00:49.192Z,4.50
2019-05-06T04:30:54.550Z,5.40
2019-05-06T05:00:56.229Z,5.30
2019-05-06T05:30:58.904Z,4.67
2019-05-06T06:01:03.936Z,3.67
2019-05-06T06:31:05.752Z,2.83
2019-05-06T07:01:08.345Z,3.90
2019-05-06T07:31:21.971Z,3.10
2019-05-06T08:01:15.456Z,2.05
2019-05-06T08:31:18.064Z,2.15
2019-05-06T09:01:22.401Z,1.42
2019-05-06T09:31:25.581Z,1.37
2019-05-06T10:01:28.183Z,1.77
2019-05-06T10:31:32.703Z,2.00
2019-05-06T11:01:35.089Z,1.57
2019-05-06T11:31:37.711Z,1.50
2019-05-06T12:01:40.306Z,1.70
2019-05-06T12:31:43.832Z,1.70
2019-05-06T13:01:46.457Z,1.80
2019-05-06T13:31:49.645Z,2.08
2019-05-06T14:01:54.412Z,2.20
2019-05-06T14:31:57.061Z,2.80
2019-05-06T15:02:02.637Z,2.15
2019-05-06T15:32:04.990Z,2.35
2019-05-06T16:02:07.731Z,2.47
2019-05-06T16:32:10.471Z,3.23
2019-05-06T17:02:13.994Z,2.45
2019-05-06T17:32:16.976Z,2.72
2019-05-06T18:02:19.624Z,1.92
2019-05-06T18:32:23.380Z,2.50
2019-05-06T19:02:26.882Z,3.22
2019-05-06T19:32:34.958Z,2.87
2019-05-06T20:02:35.009Z,4.47
2019-05-06T20:32:37.660Z,5.93
2019-05-06T21:02:42.341Z,7.40
2019-05-06T21:32:44.549Z,7.33
2019-05-06T22:02:47.259Z,7.47
2019-05-06T22:32:50.100Z,4.57
2019-05-06T23:02:52.875Z,5.00
2019-05-06T23:32:55.500Z,5.70
